Time;durP1;ratioP1;P1;durP2;ratioP2;P2;SDS_P1;SDS_P2;PMS_P1;PMS_P2;Temp;Humidity;BMP_temperature;BMP_pressure;BME280_temperature;BME280_humidity;BME280_pressure;Samples;Min_cycle;Max_cycle;Signal;HPM_P1;HPM_P2
2023/04/08 00:01:08;;;;;;;7.07;6.28;;;4.40;99.90;;;;;;4988974;28;20442;-76
2023/04/08 00:03:33;;;;;;;6.93;4.88;;;4.40;99.90;;;;;;5007188;28;20931;-76
2023/04/08 00:06:01;;;;;;;6.68;4.90;;;4.40;99.90;;;;;;5007241;28;20482;-77
2023/04/08 00:08:27;;;;;;;6.00;4.85;;;4.40;99.90;;;;;;5005864;28;20425;-76
2023/04/08 00:10:52;;;;;;;6.53;5.22;;;4.30;99.90;;;;;;5005631;28;20756;-77
2023/04/08 00:13:18;;;;;;;6.10;5.50;;;4.30;99.90;;;;;;5005747;28;20421;-77
2023/04/08 00:15:44;;;;;;;8.88;5.82;;;4.30;99.90;;;;;;5005913;28;20775;-76
2023/04/08 00:18:10;;;;;;;7.57;5.55;;;4.30;99.90;;;;;;5007069;28;20930;-76
2023/04/08 00:20:36;;;;;;;7.23;5.37;;;4.20;99.90;;;;;;5006554;28;20496;-76
2023/04/08 00:23:01;;;;;;;8.37;5.80;;;4.20;99.90;;;;;;5005645;28;20421;-74
2023/04/08 00:25:27;;;;;;;6.97;6.07;;;4.20;99.90;;;;;;5006449;28;20409;-76
2023/04/08 00:27:52;;;;;;;9.40;6.70;;;4.20;99.90;;;;;;5005054;28;20432;-75
2023/04/08 00:30:18;;;;;;;8.00;6.27;;;4.20;99.90;;;;;;5005433;28;20409;-76
2023/04/08 00:32:44;;;;;;;6.75;5.55;;;4.20;99.90;;;;;;5005272;28;20421;-76
2023/04/08 00:35:11;;;;;;;9.00;6.40;;;4.10;99.90;;;;;;5005661;28;20767;-76
2023/04/08 00:37:37;;;;;;;10.75;7.20;;;4.10;99.90;;;;;;5006775;28;20439;-76
2023/04/08 00:40:03;;;;;;;10.17;7.30;;;4.10;99.90;;;;;;5006649;28;20409;-76
2023/04/08 00:42:29;;;;;;;8.13;6.20;;;4.10;99.90;;;;;;5006535;28;21094;-77
2023/04/08 00:44:55;;;;;;;8.68;6.85;;;4.00;99.90;;;;;;5006347;28;20417;-76
2023/04/08 00:47:21;;;;;;;8.17;6.87;;;3.90;99.90;;;;;;5005578;28;20648;-76
2023/04/08 00:49:47;;;;;;;8.98;7.47;;;4.00;99.90;;;;;;5006279;28;20447;-74
2023/04/08 00:52:12;;;;;;;9.63;7.88;;;4.00;99.90;;;;;;5011105;28;20440;-75
2023/04/08 00:54:38;;;;;;;11.48;8.10;;;4.00;99.90;;;;;;5011439;28;21004;-78
2023/04/08 00:57:05;;;;;;;13.40;8.18;;;4.10;99.90;;;;;;5011492;28;20738;-75
2023/04/08 00:59:32;;;;;;;11.30;8.15;;;4.00;99.90;;;;;;5010756;28;20487;-75
2023/04/08 01:02:48;;;;;;;10.68;8.05;;;3.90;99.90;;;;;;5008446;28;20416;-76
2023/04/08 01:05:25;;;;;;;11.52;8.50;;;3.90;99.90;;;;;;4968711;28;20826;-76
2023/04/08 01:07:51;;;;;;;12.02;8.20;;;3.80;99.90;;;;;;4951954;28;20990;-75
2023/04/08 01:10:21;;;;;;;10.57;8.75;;;3.80;99.90;;;;;;4991401;28;20839;-75
2023/04/08 01:13:07;;;;;;;11.93;9.27;;;3.80;99.90;;;;;;5008454;28;20594;-76
2023/04/08 01:15:36;;;;;;;14.85;10.38;;;3.70;99.90;;;;;;5010089;28;20405;-75
2023/04/08 01:18:06;;;;;;;11.73;9.20;;;3.80;99.90;;;;;;5010322;28;20409;-76
2023/04/08 01:20:33;;;;;;;12.00;9.52;;;3.80;99.90;;;;;;5009698;28;20908;-75
2023/04/08 01:23:23;;;;;;;13.52;9.88;;;3.60;99.90;;;;;;5008211;28;20941;-76
2023/04/08 01:25:54;;;;;;;15.25;10.30;;;3.70;99.90;;;;;;5009455;28;20409;-77
2023/04/08 01:28:23;;;;;;;12.48;11.05;;;3.60;99.90;;;;;;5009678;28;20433;-75
2023/04/08 01:30:50;;;;;;;11.85;9.88;;;3.60;99.90;;;;;;5008046;28;20440;-75
2023/04/08 01:33:18;;;;;;;12.43;11.13;;;3.70;99.90;;;;;;5009047;28;20461;-76
2023/04/08 01:35:45;;;;;;;12.52;11.23;;;3.60;99.90;;;;;;5004615;28;20412;-76
2023/04/08 01:38:15;;;;;;;12.88;11.48;;;3.60;99.90;;;;;;5003554;28;20458;-76
2023/04/08 01:40:41;;;;;;;14.67;11.77;;;3.50;99.90;;;;;;5004641;28;20408;-76
2023/04/08 01:43:09;;;;;;;14.20;12.10;;;3.60;99.90;;;;;;5005522;28;20443;-76
2023/04/08 01:45:35;;;;;;;15.93;12.30;;;3.50;99.90;;;;;;5003180;28;20405;-76
2023/04/08 01:48:02;;;;;;;13.68;11.70;;;3.50;99.90;;;;;;5005893;28;20695;-75
2023/04/08 01:50:30;;;;;;;12.60;11.02;;;3.60;99.90;;;;;;5014453;28;20420;-76
2023/04/08 01:52:57;;;;;;;15.18;12.15;;;3.60;99.90;;;;;;5016828;28;20421;-74
2023/04/08 01:55:25;;;;;;;14.50;12.88;;;3.60;99.90;;;;;;5010657;28;20428;-76
2023/04/08 01:57:53;;;;;;;16.75;12.52;;;3.50;99.90;;;;;;5004584;28;20413;-75
2023/04/08 02:00:23;;;;;;;14.88;12.57;;;3.50;99.90;;;;;;5004219;28;20496;-75
2023/04/08 02:02:49;;;;;;;15.35;13.75;;;3.50;99.90;;;;;;5003839;28;21012;-76
2023/04/08 02:05:15;;;;;;;15.18;12.60;;;3.50;99.90;;;;;;5004924;28;20407;-76
2023/04/08 02:07:41;;;;;;;15.18;13.65;;;3.50;99.90;;;;;;5003346;28;20432;-76
2023/04/08 02:10:07;;;;;;;15.52;13.25;;;3.50;99.90;;;;;;5004922;28;20416;-76
2023/04/08 02:12:33;;;;;;;15.05;13.55;;;3.40;99.90;;;;;;5004835;28;20412;-74
2023/04/08 02:14:59;;;;;;;17.30;13.20;;;3.40;99.90;;;;;;5003656;28;20771;-74
2023/04/08 02:17:51;;;;;;;14.82;13.07;;;3.40;99.90;;;;;;4987649;28;20793;-75
2023/04/08 02:20:29;;;;;;;15.98;13.75;;;3.40;99.90;;;;;;5004645;28;20970;-75
2023/04/08 02:23:21;;;;;;;15.65;14.15;;;3.30;99.90;;;;;;5003336;28;20479;-77
2023/04/08 02:25:49;;;;;;;17.37;14.90;;;3.40;99.90;;;;;;4986464;28;21063;-75
2023/04/08 02:28:17;;;;;;;17.73;14.13;;;3.40;99.90;;;;;;5004323;28;20428;-76
2023/04/08 02:30:50;;;;;;;18.98;14.45;;;3.30;99.90;;;;;;5003742;28;20706;-75
2023/04/08 02:33:19;;;;;;;15.32;13.73;;;3.30;99.90;;;;;;5003673;28;20760;-75
2023/04/08 02:35:46;;;;;;;17.63;14.48;;;3.30;99.90;;;;;;5004336;28;20421;-76
2023/04/08 02:38:12;;;;;;;16.27;14.30;;;3.30;99.90;;;;;;5004476;28;20401;-77
2023/04/08 02:40:37;;;;;;;17.77;14.02;;;3.30;99.90;;;;;;5004237;28;20408;-75
2023/04/08 02:43:03;;;;;;;16.23;14.63;;;3.30;99.90;;;;;;5004853;28;20939;-76
2023/04/08 02:45:31;;;;;;;18.75;15.23;;;3.30;99.90;;;;;;5003520;28;20403;-76
2023/04/08 02:48:00;;;;;;;17.65;14.80;;;3.30;99.90;;;;;;5004003;28;20436;-75
2023/04/08 02:50:25;;;;;;;19.15;14.98;;;3.30;99.90;;;;;;5002862;28;20413;-75
2023/04/08 02:52:51;;;;;;;18.13;15.63;;;3.20;99.90;;;;;;5003071;28;20419;-76
2023/04/08 02:55:17;;;;;;;17.30;15.45;;;3.10;99.90;;;;;;5004850;28;20409;-75
2023/04/08 02:57:42;;;;;;;20.00;16.58;;;3.20;99.90;;;;;;5004008;28;20499;-75
2023/04/08 03:00:09;;;;;;;18.58;15.82;;;3.20;99.90;;;;;;5003360;28;20412;-77
2023/04/08 03:02:35;;;;;;;18.60;16.60;;;3.20;99.90;;;;;;5004639;28;20421;-74
2023/04/08 03:05:01;;;;;;;19.13;16.33;;;3.20;99.90;;;;;;5004404;28;20540;-74
2023/04/08 03:07:27;;;;;;;22.08;17.63;;;3.20;99.90;;;;;;5004229;28;20436;-76
2023/04/08 03:09:54;;;;;;;18.10;16.20;;;3.20;99.90;;;;;;5002372;28;20471;-75
2023/04/08 03:12:20;;;;;;;20.33;17.00;;;3.10;99.90;;;;;;5003984;28;20425;-76
2023/04/08 03:14:46;;;;;;;21.10;17.98;;;3.20;99.90;;;;;;5003428;28;20480;-76
2023/04/08 03:17:12;;;;;;;19.33;17.07;;;3.10;99.90;;;;;;5004288;28;20505;-75
2023/04/08 03:19:38;;;;;;;23.67;18.70;;;3.10;99.90;;;;;;5002491;28;20416;-75
2023/04/08 03:22:03;;;;;;;21.97;17.87;;;3.10;99.90;;;;;;5004337;28;20463;-75
2023/04/08 03:24:29;;;;;;;20.13;17.90;;;3.10;99.90;;;;;;5005453;28;20408;-76
2023/04/08 03:26:55;;;;;;;21.83;18.23;;;3.00;99.90;;;;;;5007731;28;20933;-74
2023/04/08 03:29:20;;;;;;;21.10;18.33;;;2.90;99.90;;;;;;5007690;28;20440;-76
2023/04/08 03:31:46;;;;;;;21.88;18.15;;;3.00;99.90;;;;;;5006833;28;20436;-75
2023/04/08 03:34:12;;;;;;;19.42;17.25;;;3.10;99.90;;;;;;5007564;28;20435;-76
2023/04/08 03:36:37;;;;;;;20.95;18.35;;;3.00;99.90;;;;;;5006258;28;20423;-75
2023/04/08 03:39:03;;;;;;;19.23;17.23;;;2.90;99.90;;;;;;5007709;28;20417;-76
2023/04/08 03:41:29;;;;;;;20.05;17.92;;;2.80;99.90;;;;;;5008153;28;20749;-75
2023/04/08 03:43:55;;;;;;;21.58;17.73;;;2.70;99.90;;;;;;5006277;28;20816;-75
2023/04/08 03:46:21;;;;;;;20.33;18.10;;;2.80;99.90;;;;;;5006882;28;20504;-76
2023/04/08 03:48:47;;;;;;;20.40;18.30;;;2.80;99.90;;;;;;5006906;28;20827;-77
2023/04/08 03:51:13;;;;;;;24.58;18.98;;;2.70;99.90;;;;;;5007389;28;20416;-76
2023/04/08 03:53:38;;;;;;;23.00;19.13;;;2.70;99.90;;;;;;5006954;28;20444;-74
2023/04/08 03:56:05;;;;;;;23.17;18.90;;;2.80;99.90;;;;;;5007789;28;20739;-75
2023/04/08 03:58:30;;;;;;;19.75;17.75;;;2.70;99.90;;;;;;5007460;28;20436;-76
2023/04/08 04:00:56;;;;;;;20.45;17.58;;;2.60;99.90;;;;;;5005886;28;20440;-74
2023/04/08 04:03:22;;;;;;;20.03;17.90;;;2.50;99.90;;;;;;5007001;28;20528;-76
2023/04/08 04:05:48;;;;;;;21.00;17.87;;;2.60;99.90;;;;;;5005125;28;20413;-76
2023/04/08 04:08:14;;;;;;;19.47;16.53;;;2.40;99.90;;;;;;5006719;28;20443;-76
2023/04/08 04:10:39;;;;;;;21.13;17.58;;;2.30;99.90;;;;;;5005728;28;20427;-75
2023/04/08 04:13:05;;;;;;;20.30;18.05;;;2.30;99.90;;;;;;4989365;28;20429;-74
2023/04/08 04:15:31;;;;;;;18.67;16.67;;;2.40;99.90;;;;;;4988381;28;20516;-77
2023/04/08 04:17:57;;;;;;;20.63;17.87;;;2.30;99.90;;;;;;5005691;28;20721;-76
2023/04/08 04:20:24;;;;;;;20.17;17.77;;;2.40;99.90;;;;;;4989089;28;21056;-74
2023/04/08 04:22:50;;;;;;;23.85;19.20;;;2.40;99.90;;;;;;5006279;28;20441;-75
2023/04/08 04:25:16;;;;;;;21.47;18.87;;;2.30;99.90;;;;;;5005065;28;20823;-75
2023/04/08 04:27:42;;;;;;;20.93;18.60;;;2.30;99.90;;;;;;5006347;28;20783;-75
2023/04/08 04:30:08;;;;;;;23.13;18.63;;;2.40;99.90;;;;;;5005410;28;20408;-76
2023/04/08 04:32:34;;;;;;;21.95;18.90;;;2.20;99.90;;;;;;5006498;28;20419;-75
2023/04/08 04:35:00;;;;;;;21.70;19.40;;;2.30;99.90;;;;;;5004676;28;20397;-75
2023/04/08 04:37:26;;;;;;;22.83;20.27;;;2.30;99.90;;;;;;4988864;28;20463;-75
2023/04/08 04:39:51;;;;;;;21.03;18.77;;;2.30;99.90;;;;;;5006317;28;20408;-75
2023/04/08 04:42:17;;;;;;;21.93;19.40;;;2.40;99.90;;;;;;5006324;28;20488;-74
2023/04/08 04:44:43;;;;;;;26.57;20.93;;;2.30;99.90;;;;;;5004952;28;20489;-77
2023/04/08 04:47:09;;;;;;;23.83;20.38;;;2.30;99.90;;;;;;5006740;28;20428;-76
2023/04/08 04:49:34;;;;;;;26.92;21.70;;;2.20;99.90;;;;;;4988571;28;20413;-77
2023/04/08 04:52:00;;;;;;;25.25;21.35;;;2.30;99.90;;;;;;5005904;28;20524;-76
2023/04/08 04:54:26;;;;;;;27.95;22.98;;;2.40;99.90;;;;;;5004998;28;20502;-76
2023/04/08 04:56:51;;;;;;;24.20;21.60;;;2.40;99.90;;;;;;5004058;28;20463;-75
2023/04/08 04:59:17;;;;;;;25.13;22.42;;;2.30;99.90;;;;;;5005933;28;20416;-76
2023/04/08 05:01:43;;;;;;;23.77;21.17;;;2.40;99.90;;;;;;5004476;28;20428;-75
2023/04/08 05:04:08;;;;;;;26.75;21.55;;;2.40;99.90;;;;;;4987985;28;20942;-77
2023/04/08 05:06:34;;;;;;;30.58;23.90;;;2.40;99.90;;;;;;5004339;28;20416;-76
2023/04/08 05:09:00;;;;;;;25.02;22.33;;;2.40;99.90;;;;;;5003885;28;20429;-75
2023/04/08 05:11:25;;;;;;;26.38;22.77;;;2.40;99.90;;;;;;5004503;28;20767;-75
2023/04/08 05:13:51;;;;;;;27.30;23.83;;;2.40;99.90;;;;;;5006371;28;20438;-75
2023/04/08 05:16:17;;;;;;;27.90;23.85;;;2.50;99.90;;;;;;5004971;28;20409;-75
2023/04/08 05:18:42;;;;;;;28.00;24.03;;;2.40;99.90;;;;;;5005173;28;20458;-75
2023/04/08 05:21:08;;;;;;;30.30;25.80;;;2.60;99.90;;;;;;5003974;28;20409;-76
2023/04/08 05:23:34;;;;;;;28.27;25.27;;;2.60;99.90;;;;;;5006135;28;20767;-75
2023/04/08 05:26:00;;;;;;;27.33;24.13;;;2.60;99.90;;;;;;5005701;28;20393;-76
2023/04/08 05:28:26;;;;;;;27.83;24.02;;;2.80;99.90;;;;;;5005187;28;20838;-76
2023/04/08 05:30:52;;;;;;;27.15;23.83;;;3.00;99.90;;;;;;5004155;28;20416;-75
2023/04/08 05:33:18;;;;;;;27.20;24.35;;;3.10;99.90;;;;;;5005170;28;20451;-75
2023/04/08 05:35:44;;;;;;;28.02;25.10;;;3.30;99.90;;;;;;5004737;28;20473;-75
2023/04/08 05:38:10;;;;;;;28.67;24.60;;;3.60;99.90;;;;;;5005136;28;20950;-75
2023/04/08 05:40:36;;;;;;;28.85;25.33;;;3.40;99.90;;;;;;5003366;28;20409;-77
2023/04/08 05:43:02;;;;;;;27.83;24.92;;;3.30;99.90;;;;;;5003882;28;20416;-76
2023/04/08 05:45:28;;;;;;;27.50;24.50;;;3.20;99.90;;;;;;4986728;28;20432;-76
2023/04/08 05:47:54;;;;;;;26.33;23.52;;;3.10;99.90;;;;;;5002073;28;20791;-75
2023/04/08 05:50:19;;;;;;;29.45;24.48;;;3.10;99.90;;;;;;5004591;28;20524;-75
2023/04/08 05:52:45;;;;;;;27.83;24.00;;;3.20;99.90;;;;;;5004638;28;20443;-75
2023/04/08 05:55:11;;;;;;;29.30;24.17;;;3.20;99.90;;;;;;5004802;28;21007;-75
2023/04/08 05:57:37;;;;;;;29.98;25.48;;;3.20;99.90;;;;;;5004332;28;20498;-76
2023/04/08 06:00:07;;;;;;;28.60;25.52;;;3.10;99.90;;;;;;5004144;28;20504;-74
2023/04/08 06:02:34;;;;;;;28.80;25.55;;;3.00;99.90;;;;;;5003434;28;20427;-76
2023/04/08 06:05:00;;;;;;;29.38;25.48;;;3.10;99.90;;;;;;5004117;28;20930;-75
2023/04/08 06:07:26;;;;;;;30.40;25.13;;;3.00;99.90;;;;;;5003608;28;20464;-77
2023/04/08 06:09:51;;;;;;;27.13;24.17;;;3.10;99.90;;;;;;5004283;28;20733;-75
2023/04/08 06:12:17;;;;;;;29.83;26.52;;;3.20;99.90;;;;;;4986930;28;20431;-77
2023/04/08 06:14:43;;;;;;;30.50;26.35;;;3.20;99.90;;;;;;5001654;28;20444;-76
2023/04/08 06:17:09;;;;;;;31.88;28.08;;;3.40;99.90;;;;;;5004094;28;20415;-76
2023/04/08 06:19:34;;;;;;;35.50;27.70;;;3.40;99.90;;;;;;5004453;28;20775;-75
2023/04/08 06:22:00;;;;;;;30.23;26.83;;;3.40;99.90;;;;;;5002825;28;20523;-75
2023/04/08 06:24:26;;;;;;;30.17;26.50;;;3.50;99.90;;;;;;5004071;28;20409;-74
2023/04/08 06:26:53;;;;;;;30.30;26.42;;;3.60;99.90;;;;;;5003706;28;20827;-76
2023/04/08 06:29:22;;;;;;;29.95;26.63;;;3.70;99.90;;;;;;5003270;28;20934;-76
2023/04/08 06:31:49;;;;;;;29.77;26.60;;;3.80;99.90;;;;;;5002320;28;20927;-75
2023/04/08 06:34:15;;;;;;;32.13;28.33;;;3.90;99.90;;;;;;5003768;28;20607;-75
2023/04/08 06:36:41;;;;;;;29.27;25.90;;;3.90;99.90;;;;;;5003895;28;20396;-75
2023/04/08 06:39:06;;;;;;;30.40;26.17;;;4.10;99.90;;;;;;5004190;28;20421;-76
2023/04/08 06:41:32;;;;;;;30.88;27.52;;;4.00;99.90;;;;;;5004071;28;20405;-76
2023/04/08 06:43:58;;;;;;;29.13;26.00;;;4.20;99.90;;;;;;5003866;28;20460;-76
2023/04/08 06:46:24;;;;;;;32.30;26.73;;;4.20;99.90;;;;;;5002241;28;20925;-77
2023/04/08 06:48:50;;;;;;;31.65;27.45;;;4.40;99.90;;;;;;5002306;28;21075;-75
2023/04/08 06:51:15;;;;;;;30.58;25.92;;;4.40;99.90;;;;;;5004102;28;20436;-77
2023/04/08 06:53:41;;;;;;;30.08;26.67;;;4.50;99.90;;;;;;4986351;28;20532;-76
2023/04/08 06:56:07;;;;;;;28.80;25.77;;;4.70;99.90;;;;;;5003772;28;20471;-76
2023/04/08 06:58:32;;;;;;;30.55;26.45;;;4.70;99.90;;;;;;5005984;28;20447;-76
2023/04/08 07:01:00;;;;;;;30.10;26.70;;;5.30;99.90;;;;;;5006670;28;20435;-76
2023/04/08 07:03:25;;;;;;;29.60;26.40;;;5.50;99.90;;;;;;5008324;28;20436;-75
2023/04/08 07:05:52;;;;;;;29.83;26.07;;;5.80;99.90;;;;;;5007663;28;20475;-75
2023/04/08 07:08:17;;;;;;;31.83;28.23;;;5.70;99.90;;;;;;5007578;28;20974;-75
2023/04/08 07:10:43;;;;;;;29.17;26.02;;;5.90;99.90;;;;;;5007569;28;20500;-76
2023/04/08 07:13:09;;;;;;;30.27;26.98;;;5.80;99.90;;;;;;5007627;28;20799;-75
2023/04/08 07:15:36;;;;;;;26.93;24.07;;;5.90;99.90;;;;;;5007533;28;20420;-77
2023/04/08 07:18:03;;;;;;;29.88;25.38;;;5.80;99.90;;;;;;5008079;28;20420;-75
2023/04/08 07:20:29;;;;;;;27.13;24.33;;;5.90;99.90;;;;;;5006277;28;20409;-76
2023/04/08 07:22:55;;;;;;;27.42;24.63;;;6.10;99.90;;;;;;5007495;28;20432;-75
2023/04/08 07:25:20;;;;;;;28.73;25.73;;;6.00;99.90;;;;;;5007636;28;20858;-76
2023/04/08 07:27:46;;;;;;;28.60;25.55;;;6.10;99.90;;;;;;5007291;28;20436;-76
2023/04/08 07:30:12;;;;;;;27.20;24.30;;;6.20;99.90;;;;;;5006423;28;20773;-75
2023/04/08 07:32:37;;;;;;;26.83;23.50;;;6.20;99.90;;;;;;5005865;28;20421;-75
2023/04/08 07:35:03;;;;;;;27.00;24.30;;;6.40;99.90;;;;;;5006674;28;20403;-75
2023/04/08 07:37:29;;;;;;;25.90;23.10;;;6.50;99.90;;;;;;5006208;28;20899;-76
2023/04/08 07:39:55;;;;;;;24.27;21.83;;;6.50;99.90;;;;;;5007007;28;20412;-76
2023/04/08 07:42:20;;;;;;;24.83;22.37;;;6.40;99.90;;;;;;4990076;28;20416;-77
2023/04/08 07:44:46;;;;;;;26.67;23.97;;;6.70;99.90;;;;;;5006237;28;20526;-77
2023/04/08 07:47:12;;;;;;;23.77;21.25;;;6.90;99.90;;;;;;5006445;28;20457;-78
2023/04/08 07:49:38;;;;;;;24.48;22.02;;;7.20;99.90;;;;;;5007291;28;20417;-77
2023/04/08 07:52:05;;;;;;;22.40;19.98;;;7.20;99.90;;;;;;5007601;28;20381;-77
2023/04/08 07:54:33;;;;;;;21.97;19.77;;;7.10;99.90;;;;;;5006092;28;20417;-76
2023/04/08 07:56:59;;;;;;;26.55;23.65;;;7.00;99.90;;;;;;5006565;28;20409;-76
2023/04/08 07:59:24;;;;;;;24.80;22.27;;;7.10;99.90;;;;;;5005321;28;20427;-76
2023/04/08 08:01:50;;;;;;;23.63;21.33;;;7.20;99.90;;;;;;5007085;28;20404;-77
2023/04/08 08:04:16;;;;;;;23.98;21.33;;;7.00;99.90;;;;;;5006890;28;20405;-75
2023/04/08 08:06:42;;;;;;;24.70;22.25;;;6.90;99.90;;;;;;5006490;28;20401;-76
2023/04/08 08:09:08;;;;;;;24.33;21.75;;;7.00;99.90;;;;;;5006682;28;20446;-76
2023/04/08 08:11:34;;;;;;;24.83;22.27;;;7.10;99.90;;;;;;5005760;28;20470;-77
2023/04/08 08:14:00;;;;;;;23.83;21.50;;;7.00;99.90;;;;;;5005686;28;20421;-75
2023/04/08 08:16:30;;;;;;;24.38;22.00;;;6.90;99.90;;;;;;5006601;28;20413;-76
2023/04/08 08:18:59;;;;;;;26.55;23.85;;;6.90;99.90;;;;;;5006482;28;20425;-75
2023/04/08 08:21:25;;;;;;;24.87;22.47;;;7.10;99.90;;;;;;5005278;28;20475;-77
2023/04/08 08:23:51;;;;;;;27.23;24.45;;;7.50;99.90;;;;;;5006795;28;20413;-77
2023/04/08 08:26:17;;;;;;;24.80;22.50;;;7.60;99.90;;;;;;5006774;28;20823;-77
2023/04/08 08:28:43;;;;;;;26.27;23.52;;;8.00;99.90;;;;;;5006015;28;20440;-76
2023/04/08 08:31:08;;;;;;;24.85;22.25;;;8.00;99.90;;;;;;5005689;28;20435;-75
2023/04/08 08:33:34;;;;;;;26.57;23.90;;;8.00;99.90;;;;;;5006920;28;20445;-77
2023/04/08 08:36:00;;;;;;;26.17;23.67;;;8.10;99.90;;;;;;5005019;28;20409;-76
2023/04/08 08:38:26;;;;;;;26.60;23.95;;;7.70;99.90;;;;;;5006548;28;20436;-75
2023/04/08 08:40:59;;;;;;;25.23;22.73;;;7.80;99.90;;;;;;5007059;28;20459;-76
2023/04/08 08:43:26;;;;;;;23.83;21.42;;;7.90;99.90;;;;;;5006418;28;20495;-75
2023/04/08 08:45:54;;;;;;;23.67;21.20;;;8.00;99.90;;;;;;5004163;28;20413;-75
2023/04/08 08:48:20;;;;;;;24.35;21.75;;;7.70;99.90;;;;;;5006733;28;20421;-76
2023/04/08 08:50:46;;;;;;;20.75;18.85;;;7.90;99.90;;;;;;5006404;28;20444;-76
2023/04/08 08:53:12;;;;;;;22.47;20.17;;;7.70;99.90;;;;;;5005017;28;20425;-76
2023/04/08 08:55:38;;;;;;;21.53;19.40;;;7.90;99.90;;;;;;5005752;28;20409;-76
2023/04/08 08:58:06;;;;;;;19.20;17.40;;;7.80;99.90;;;;;;5006306;28;20412;-77
2023/04/08 09:00:37;;;;;;;19.50;17.60;;;8.00;99.90;;;;;;5005207;28;20756;-75
2023/04/08 09:03:17;;;;;;;18.25;16.48;;;8.20;99.90;;;;;;5004365;28;20424;-77
2023/04/08 09:06:00;;;;;;;21.90;18.73;;;8.40;99.90;;;;;;5005183;28;20412;-75
2023/04/08 09:08:34;;;;;;;20.30;18.10;;;8.70;99.90;;;;;;5006349;28;20440;-76
2023/04/08 09:11:20;;;;;;;18.27;16.55;;;8.90;99.90;;;;;;5005775;28;20435;-74
2023/04/08 09:13:46;;;;;;;17.33;15.67;;;8.30;99.90;;;;;;5003922;28;20424;-78
2023/04/08 09:16:17;;;;;;;17.40;15.57;;;7.90;99.90;;;;;;5006075;28;20493;-74
2023/04/08 09:18:44;;;;;;;17.10;15.50;;;8.20;99.90;;;;;;5005361;28;20771;-76
2023/04/08 09:21:12;;;;;;;17.80;16.00;;;8.40;99.90;;;;;;5004721;28;20474;-75
2023/04/08 09:23:46;;;;;;;16.58;14.68;;;8.50;99.90;;;;;;5004769;28;20520;-76
2023/04/08 09:26:16;;;;;;;15.40;13.90;;;8.80;99.90;;;;;;5006143;28;20399;-74
2023/04/08 09:28:56;;;;;;;15.52;14.00;;;8.20;99.90;;;;;;5004731;28;20771;-76
2023/04/08 09:31:27;;;;;;;14.63;13.13;;;8.60;99.90;;;;;;5004466;28;20407;-76
2023/04/08 09:33:58;;;;;;;13.35;11.95;;;8.50;99.90;;;;;;5006026;28;20443;-76
2023/04/08 09:36:27;;;;;;;14.25;12.88;;;8.70;99.90;;;;;;5006105;28;20408;-77
2023/04/08 09:38:54;;;;;;;14.18;12.75;;;8.90;99.90;;;;;;5005149;28;20794;-77
2023/04/08 09:41:22;;;;;;;13.98;12.60;;;8.80;99.90;;;;;;5005060;28;20834;-77
2023/04/08 09:43:57;;;;;;;11.67;10.57;;;8.50;99.90;;;;;;5115024;27;1953629;-77
2023/04/08 09:46:31;;;;;;;13.18;11.88;;;8.50;99.90;;;;;;5164028;27;20400;-77
2023/04/08 09:49:15;;;;;;;12.87;11.50;;;8.40;99.90;;;;;;5163378;27;20946;-75
2023/04/08 09:52:03;;;;;;;14.43;12.93;;;8.20;99.90;;;;;;5163387;27;20411;-75
2023/04/08 09:55:05;;;;;;;14.57;13.07;;;8.20;99.90;;;;;;5163516;27;20481;-75
2023/04/08 09:57:42;;;;;;;13.38;12.07;;;8.20;99.90;;;;;;5109325;27;20488;-76
2023/04/08 10:00:13;;;;;;;13.13;11.82;;;8.50;99.90;;;;;;5162199;27;20435;-75
2023/04/08 10:02:48;;;;;;;13.23;11.13;;;8.10;99.90;;;;;;5163554;27;20420;-77
2023/04/08 10:05:14;;;;;;;14.10;12.70;;;8.20;99.90;;;;;;5164172;27;20397;-75
2023/04/08 10:07:41;;;;;;;14.55;13.07;;;7.90;99.90;;;;;;5144678;27;20431;-76
2023/04/08 10:10:10;;;;;;;14.02;12.60;;;8.00;99.90;;;;;;5144932;27;20408;-79
2023/04/08 10:12:36;;;;;;;14.50;12.60;;;8.10;99.90;;;;;;5162623;27;20396;-75
2023/04/08 10:15:21;;;;;;;14.73;13.23;;;7.90;99.90;;;;;;5162536;27;20408;-77
2023/04/08 10:17:46;;;;;;;14.82;13.32;;;8.30;99.90;;;;;;5163349;27;20408;-77
2023/04/08 10:20:37;;;;;;;16.05;14.38;;;8.30;99.90;;;;;;5163533;27;20403;-76
2023/04/08 10:23:07;;;;;;;17.95;16.15;;;8.00;99.90;;;;;;5163482;27;20428;-76
2023/04/08 10:25:36;;;;;;;15.35;13.85;;;8.30;99.90;;;;;;5164188;27;20397;-75
2023/04/08 10:28:22;;;;;;;16.27;14.02;;;7.90;99.90;;;;;;5163863;27;20405;-74
2023/04/08 10:30:49;;;;;;;17.23;15.43;;;8.10;99.90;;;;;;5142973;27;20392;-77
2023/04/08 10:33:24;;;;;;;18.38;16.45;;;8.00;99.90;;;;;;5163321;27;20441;-77
2023/04/08 10:35:54;;;;;;;17.27;15.48;;;8.10;99.90;;;;;;5162753;27;20754;-78
2023/04/08 10:38:21;;;;;;;18.42;16.52;;;7.80;99.90;;;;;;5162916;27;21157;-76
2023/04/08 10:40:48;;;;;;;20.05;18.00;;;7.90;99.90;;;;;;5162468;27;20424;-77
2023/04/08 10:43:14;;;;;;;19.98;17.85;;;8.00;99.90;;;;;;5162716;27;20472;-77
2023/04/08 10:45:41;;;;;;;20.95;18.75;;;7.90;99.90;;;;;;5161619;27;20400;-75
2023/04/08 10:48:23;;;;;;;20.38;18.27;;;8.00;99.90;;;;;;5162487;27;20401;-78
2023/04/08 10:50:54;;;;;;;18.90;17.00;;;8.00;99.90;;;;;;5143782;27;20392;-75
2023/04/08 10:53:34;;;;;;;16.50;14.73;;;8.10;99.90;;;;;;5160365;27;20939;-78
2023/04/08 10:56:14;;;;;;;16.67;14.65;;;8.40;99.90;;;;;;5148658;27;20755;-76
2023/04/08 10:58:51;;;;;;;16.15;14.45;;;7.90;99.90;;;;;;5147513;27;20464;-77
2023/04/08 11:01:18;;;;;;;15.43;13.82;;;8.00;99.90;;;;;;5149054;27;20787;-76
2023/04/08 11:03:44;;;;;;;15.77;14.18;;;8.10;99.90;;;;;;5148268;27;20465;-76
2023/04/08 11:06:10;;;;;;;16.03;14.27;;;7.90;99.90;;;;;;5148616;27;20397;-76
2023/04/08 11:08:37;;;;;;;16.97;14.67;;;8.20;99.90;;;;;;5148079;27;20915;-78
2023/04/08 11:11:07;;;;;;;16.83;15.03;;;8.30;99.90;;;;;;5130130;27;20472;-78
2023/04/08 11:13:35;;;;;;;16.58;14.60;;;8.50;99.90;;;;;;5147438;27;20913;-77
2023/04/08 11:16:03;;;;;;;16.75;14.82;;;8.50;99.90;;;;;;5148810;27;20411;-75
2023/04/08 11:18:30;;;;;;;17.00;15.27;;;8.40;99.90;;;;;;5148054;27;20407;-77
2023/04/08 11:20:56;;;;;;;17.25;15.40;;;8.40;99.90;;;;;;5147837;27;20443;-76
2023/04/08 11:23:24;;;;;;;17.15;15.43;;;8.50;99.90;;;;;;5147679;27;20430;-77
2023/04/08 11:25:51;;;;;;;18.23;16.33;;;8.40;99.90;;;;;;5147501;27;20397;-76
2023/04/08 11:28:17;;;;;;;17.40;15.55;;;8.60;99.90;;;;;;5148251;27;20545;-77
2023/04/08 11:30:43;;;;;;;16.63;14.80;;;8.50;99.90;;;;;;5146906;27;20524;-76
2023/04/08 11:33:09;;;;;;;22.77;17.30;;;8.50;99.90;;;;;;5148583;27;20403;-77
2023/04/08 11:35:43;;;;;;;17.80;15.90;;;8.60;99.90;;;;;;5148254;27;20767;-75
2023/04/08 11:38:10;;;;;;;16.92;15.07;;;8.30;99.90;;;;;;5147584;27;20405;-76
2023/04/08 11:40:36;;;;;;;17.33;15.53;;;8.70;99.90;;;;;;5148071;27;20385;-75
2023/04/08 11:43:10;;;;;;;17.98;16.17;;;8.70;99.90;;;;;;5129237;27;20483;-77
2023/04/08 11:45:39;;;;;;;17.45;15.65;;;8.90;99.90;;;;;;5146592;27;20676;-79
2023/04/08 11:48:12;;;;;;;17.17;15.48;;;9.00;99.90;;;;;;5147862;27;20456;-78
2023/04/08 11:50:39;;;;;;;15.55;13.80;;;9.00;99.90;;;;;;5147833;27;20393;-76
2023/04/08 11:53:17;;;;;;;14.25;12.75;;;8.90;99.90;;;;;;5147845;27;20385;-77
2023/04/08 11:55:42;;;;;;;15.40;13.80;;;8.90;99.90;;;;;;5148361;27;20401;-75
2023/04/08 11:58:08;;;;;;;16.40;14.68;;;9.10;99.90;;;;;;5149237;27;20790;-79
2023/04/08 12:00:36;;;;;;;13.80;11.82;;;9.30;99.90;;;;;;5148711;27;20402;-75
2023/04/08 12:03:06;;;;;;;13.93;12.20;;;9.30;99.90;;;;;;5130257;27;20428;-76
2023/04/08 12:05:32;;;;;;;14.82;13.02;;;9.20;99.90;;;;;;5148014;27;20401;-76
2023/04/08 12:07:57;;;;;;;18.58;15.85;;;9.30;99.90;;;;;;5148981;27;20480;-79
2023/04/08 12:10:26;;;;;;;17.70;15.60;;;9.40;99.90;;;;;;5149946;27;20426;-78
2023/04/08 12:12:51;;;;;;;17.73;15.90;;;9.40;99.90;;;;;;5148158;27;20412;-76
2023/04/08 12:15:17;;;;;;;19.10;15.70;;;9.30;99.90;;;;;;5147101;27;20393;-75
2023/04/08 12:17:43;;;;;;;19.47;16.77;;;9.10;99.90;;;;;;5146505;27;20732;-79
2023/04/08 12:20:12;;;;;;;21.35;17.83;;;9.20;99.90;;;;;;5147429;27;20389;-76
2023/04/08 12:22:38;;;;;;;18.90;16.70;;;9.20;99.90;;;;;;5147400;27;20413;-77
2023/04/08 12:25:05;;;;;;;22.15;18.55;;;9.30;99.90;;;;;;5147365;27;20608;-76
2023/04/08 12:27:34;;;;;;;24.45;18.45;;;9.40;99.90;;;;;;5147470;27;20400;-77
2023/04/08 12:30:01;;;;;;;23.83;18.67;;;9.30;99.90;;;;;;5145860;27;20457;-75
2023/04/08 12:32:27;;;;;;;20.73;18.53;;;9.30;99.90;;;;;;5146893;27;20429;-77
2023/04/08 12:34:52;;;;;;;23.95;19.02;;;9.60;99.90;;;;;;5146439;27;20408;-79
2023/04/08 12:37:19;;;;;;;20.77;17.88;;;9.60;99.90;;;;;;5146916;27;20488;-73
2023/04/08 12:39:46;;;;;;;22.98;19.60;;;9.70;99.90;;;;;;5146764;27;20704;-76
2023/04/08 12:42:12;;;;;;;24.63;19.33;;;9.50;99.90;;;;;;5146804;27;20434;-76